JBU62 KPBI-KLGA
Flight info
| Callsign | JBU62 |
|---|---|
| Flight time | 2h 13m |
| Altitude | 35000 |
| Route | SLIDZ3 LENDS GRUBR Y299 SEELO GARIC Q107 HURTS PROUD2 |
| Aircraft | A320/M-SDE3FGHIRWY/LB1 |
Departure
| Time | 2026-04-26 00:02 |
|---|---|
| Airport | Palm Beach International Airport (KPBI) |
Arrival
| Time | 2026-04-26 02:15 |
|---|---|
| Airport | LaGuardia Airport (KLGA) |
| Time | Latitude | Longitude | Altitude | Speed | Heading |
|---|---|---|---|---|---|
| 2026-04-25 23:34 | 26.68571 | -80.08867 | 26 ft | 0 kts | 272° |
| 2026-04-25 23:52 | 26.68571 | -80.08859 | 22 ft | 4 kts | 271° |
| 2026-04-25 23:52 | 26.68572 | -80.08819 | 22 ft | 4 kts | 260° |
| 2026-04-25 23:52 | 26.68576 | -80.08799 | 22 ft | 4 kts | 247° |
| 2026-04-25 23:53 | 26.68589 | -80.08779 | 23 ft | 4 kts | 188° |
| 2026-04-25 23:53 | 26.68596 | -80.08778 | 22 ft | 0 kts | 149° |
| 2026-04-25 23:55 | 26.68585 | -80.08771 | 22 ft | 4 kts | 150° |
| 2026-04-25 23:56 | 26.68546 | -80.08769 | 22 ft | 8 kts | 182° |
| 2026-04-25 23:56 | 26.68473 | -80.08773 | 22 ft | 12 kts | 183° |
| 2026-04-25 23:56 | 26.68439 | -80.08824 | 22 ft | 11 kts | 269° |
| 2026-04-25 23:56 | 26.68442 | -80.08921 | 22 ft | 13 kts | 273° |
| 2026-04-25 23:57 | 26.68447 | -80.09011 | 12 ft | 6 kts | 273° |
| 2026-04-25 23:57 | 26.68448 | -80.09047 | 22 ft | 5 kts | 272° |
| 2026-04-25 23:57 | 26.68439 | -80.09087 | 22 ft | 6 kts | 233° |
| 2026-04-25 23:57 | 26.68391 | -80.09101 | 22 ft | 8 kts | 184° |
| 2026-04-25 23:58 | 26.68358 | -80.09159 | 22 ft | 12 kts | 271° |
| 2026-04-25 23:58 | 26.68364 | -80.09273 | 22 ft | 16 kts | 273° |
| 2026-04-25 23:58 | 26.68369 | -80.09403 | 22 ft | 19 kts | 272° |
| 2026-04-25 23:58 | 26.68376 | -80.09566 | 22 ft | 22 kts | 274° |
| 2026-04-25 23:59 | 26.68383 | -80.09710 | 22 ft | 23 kts | 272° |
| 2026-04-25 23:59 | 26.68390 | -80.09895 | 22 ft | 24 kts | 273° |
| 2026-04-25 23:59 | 26.68398 | -80.10086 | 21 ft | 26 kts | 273° |
| 2026-04-25 23:59 | 26.68406 | -80.10262 | 21 ft | 21 kts | 273° |
| 2026-04-26 00:00 | 26.68413 | -80.10427 | 21 ft | 22 kts | 273° |
| 2026-04-26 00:00 | 26.68421 | -80.10608 | 21 ft | 24 kts | 272° |
| 2026-04-26 00:00 | 26.68428 | -80.10789 | 21 ft | 12 kts | 267° |
| 2026-04-26 00:00 | 26.68350 | -80.10822 | 24 ft | 15 kts | 178° |
| 2026-04-26 00:01 | 26.68317 | -80.10741 | 21 ft | 13 kts | 80° |
| 2026-04-26 00:01 | 26.68312 | -80.10619 | 21 ft | 37 kts | 93° |
| 2026-04-26 00:01 | 26.68290 | -80.10086 | 22 ft | 98 kts | 92° |
| 2026-04-26 00:01 | 26.68248 | -80.09131 | 22 ft | 145 kts | 92° |
| 2026-04-26 00:02 | 26.68198 | -80.07930 | 346 ft | 157 kts | 93° |
| 2026-04-26 00:02 | 26.68175 | -80.06685 | 869 ft | 161 kts | 93° |
| 2026-04-26 00:02 | 26.68227 | -80.05416 | 1389 ft | 167 kts | 81° |
| 2026-04-26 00:02 | 26.68672 | -80.04119 | 1635 ft | 192 kts | 65° |
| 2026-04-26 00:03 | 26.69337 | -80.02724 | 1865 ft | 213 kts | 65° |
| 2026-04-26 00:03 | 26.69962 | -80.01396 | 2100 ft | 234 kts | 64° |
| 2026-04-26 00:03 | 26.70417 | -80.00378 | 2299 ft | 248 kts | 65° |
| 2026-04-26 00:03 | 26.71226 | -79.98612 | 2889 ft | 260 kts | 65° |
| 2026-04-26 00:04 | 26.72222 | -79.96887 | 3619 ft | 269 kts | 50° |
| 2026-04-26 00:04 | 26.73467 | -79.95301 | 4462 ft | 273 kts | 49° |
| 2026-04-26 00:04 | 26.74726 | -79.93700 | 5302 ft | 275 kts | 48° |
| 2026-04-26 00:04 | 26.75994 | -79.92081 | 6134 ft | 279 kts | 47° |
| 2026-04-26 00:05 | 26.77280 | -79.90433 | 6883 ft | 283 kts | 47° |
| 2026-04-26 00:05 | 26.78578 | -79.88761 | 7639 ft | 286 kts | 47° |
| 2026-04-26 00:05 | 26.79887 | -79.87067 | 8397 ft | 290 kts | 47° |
| 2026-04-26 00:05 | 26.81207 | -79.85355 | 9162 ft | 293 kts | 47° |
| 2026-04-26 00:06 | 26.82548 | -79.83614 | 9908 ft | 297 kts | 46° |
| 2026-04-26 00:06 | 26.83918 | -79.81834 | 10336 ft | 311 kts | 47° |
| 2026-04-26 00:06 | 26.85382 | -79.79937 | 10494 ft | 333 kts | 47° |
| 2026-04-26 00:06 | 26.86946 | -79.77910 | 10691 ft | 353 kts | 47° |
| 2026-04-26 00:07 | 26.88568 | -79.75802 | 11213 ft | 359 kts | 47° |
| 2026-04-26 00:07 | 26.90207 | -79.73672 | 11834 ft | 363 kts | 47° |
| 2026-04-26 00:07 | 26.91863 | -79.71517 | 12467 ft | 366 kts | 46° |
| 2026-04-26 00:07 | 26.93656 | -79.69484 | 13091 ft | 368 kts | 41° |
| 2026-04-26 00:08 | 26.95528 | -79.67513 | 13721 ft | 371 kts | 40° |
| 2026-04-26 00:08 | 26.97422 | -79.65523 | 14273 ft | 374 kts | 40° |
| 2026-04-26 00:08 | 26.99327 | -79.63521 | 14795 ft | 378 kts | 40° |
| 2026-04-26 00:08 | 27.01253 | -79.61495 | 15312 ft | 381 kts | 40° |
| 2026-04-26 00:09 | 27.03198 | -79.59443 | 15818 ft | 385 kts | 40° |
| 2026-04-26 00:09 | 27.05133 | -79.57401 | 16329 ft | 389 kts | 40° |
| 2026-04-26 00:09 | 27.07106 | -79.55317 | 16844 ft | 392 kts | 40° |
| 2026-04-26 00:09 | 27.09106 | -79.53202 | 17391 ft | 396 kts | 40° |
| 2026-04-26 00:10 | 27.11124 | -79.51070 | 17909 ft | 401 kts | 40° |
| 2026-04-26 00:10 | 27.13164 | -79.48913 | 18419 ft | 405 kts | 40° |
| 2026-04-26 00:10 | 27.15223 | -79.46735 | 18905 ft | 408 kts | 40° |
| 2026-04-26 00:10 | 27.17295 | -79.44542 | 19406 ft | 411 kts | 41° |
| 2026-04-26 00:11 | 27.19380 | -79.42329 | 19919 ft | 414 kts | 41° |
| 2026-04-26 00:11 | 27.21489 | -79.40093 | 20424 ft | 418 kts | 41° |
| 2026-04-26 00:11 | 27.23612 | -79.37839 | 20900 ft | 421 kts | 41° |
| 2026-04-26 00:11 | 27.25747 | -79.35572 | 21358 ft | 424 kts | 41° |
| 2026-04-26 00:12 | 27.27899 | -79.33286 | 21803 ft | 427 kts | 41° |
| 2026-04-26 00:12 | 27.30063 | -79.30984 | 22236 ft | 429 kts | 41° |
| 2026-04-26 00:12 | 27.32239 | -79.28671 | 22651 ft | 432 kts | 41° |
| 2026-04-26 00:12 | 27.34408 | -79.26363 | 23065 ft | 435 kts | 41° |
| 2026-04-26 00:13 | 27.36614 | -79.24017 | 23474 ft | 438 kts | 41° |
| 2026-04-26 00:13 | 27.38832 | -79.21656 | 23823 ft | 440 kts | 41° |
| 2026-04-26 00:13 | 27.41059 | -79.19282 | 24176 ft | 442 kts | 41° |
| 2026-04-26 00:13 | 27.43291 | -79.16900 | 24543 ft | 443 kts | 41° |
| 2026-04-26 00:14 | 27.45526 | -79.14513 | 24905 ft | 444 kts | 41° |
| 2026-04-26 00:14 | 27.47771 | -79.12115 | 25262 ft | 445 kts | 40° |
| 2026-04-26 00:14 | 27.50023 | -79.09712 | 25616 ft | 446 kts | 40° |
| 2026-04-26 00:14 | 27.52275 | -79.07308 | 25969 ft | 447 kts | 40° |
| 2026-04-26 00:15 | 27.54527 | -79.04901 | 26333 ft | 447 kts | 40° |
| 2026-04-26 00:15 | 27.56787 | -79.02482 | 26716 ft | 448 kts | 40° |
| 2026-04-26 00:15 | 27.59045 | -79.00059 | 27080 ft | 448 kts | 40° |
| 2026-04-26 00:15 | 27.61305 | -78.97633 | 27436 ft | 449 kts | 40° |
| 2026-04-26 00:16 | 27.63574 | -78.95213 | 27788 ft | 449 kts | 38° |
| 2026-04-26 00:16 | 27.66059 | -78.93120 | 28237 ft | 443 kts | 28° |
| 2026-04-26 00:16 | 27.68784 | -78.91569 | 28740 ft | 436 kts | 19° |
| 2026-04-26 00:16 | 27.71662 | -78.90570 | 29252 ft | 430 kts | 9° |
| 2026-04-26 00:17 | 27.74603 | -78.90074 | 29767 ft | 426 kts | 5° |
| 2026-04-26 00:17 | 27.77536 | -78.89671 | 30256 ft | 423 kts | 5° |
| 2026-04-26 00:17 | 27.80454 | -78.89265 | 30666 ft | 421 kts | 5° |
| 2026-04-26 00:17 | 27.83327 | -78.88863 | 31027 ft | 421 kts | 5° |
| 2026-04-26 00:18 | 27.86234 | -78.88455 | 31380 ft | 420 kts | 5° |
| 2026-04-26 00:18 | 27.89138 | -78.88046 | 31728 ft | 420 kts | 5° |
| 2026-04-26 00:18 | 27.92043 | -78.87636 | 32083 ft | 420 kts | 5° |
| 2026-04-26 00:18 | 27.94941 | -78.87229 | 32441 ft | 420 kts | 5° |
| 2026-04-26 00:19 | 27.97838 | -78.86820 | 32810 ft | 419 kts | 5° |
| 2026-04-26 00:19 | 28.00730 | -78.86411 | 33175 ft | 419 kts | 5° |
| 2026-04-26 00:19 | 28.03622 | -78.86004 | 33540 ft | 419 kts | 5° |
| 2026-04-26 00:19 | 28.06512 | -78.85597 | 33902 ft | 418 kts | 5° |
| 2026-04-26 00:20 | 28.09398 | -78.85192 | 34210 ft | 418 kts | 5° |
| 2026-04-26 00:20 | 28.12284 | -78.84782 | 34498 ft | 418 kts | 5° |
| 2026-04-26 00:20 | 28.15169 | -78.84373 | 34771 ft | 418 kts | 5° |
| 2026-04-26 00:20 | 28.18057 | -78.83963 | 34936 ft | 419 kts | 5° |
| 2026-04-26 00:21 | 28.20969 | -78.83552 | 34986 ft | 424 kts | 5° |
| 2026-04-26 00:21 | 28.26874 | -78.82718 | 34978 ft | 429 kts | 5° |
| 2026-04-26 00:22 | 28.32809 | -78.81880 | 34980 ft | 430 kts | 5° |
| 2026-04-26 00:22 | 28.38744 | -78.81044 | 34982 ft | 430 kts | 5° |
| 2026-04-26 00:23 | 28.44680 | -78.80194 | 34979 ft | 430 kts | 5° |
| 2026-04-26 00:23 | 28.50625 | -78.79344 | 34986 ft | 430 kts | 5° |
| 2026-04-26 00:24 | 28.56564 | -78.78501 | 34989 ft | 429 kts | 5° |
| 2026-04-26 00:24 | 28.62498 | -78.77661 | 34989 ft | 429 kts | 5° |
| 2026-04-26 00:25 | 28.68423 | -78.76808 | 34991 ft | 429 kts | 5° |
| 2026-04-26 00:25 | 28.74306 | -78.75962 | 34990 ft | 429 kts | 5° |
| 2026-04-26 00:26 | 28.80272 | -78.75115 | 34994 ft | 429 kts | 5° |
| 2026-04-26 00:26 | 28.86186 | -78.74276 | 34993 ft | 428 kts | 5° |
| 2026-04-26 00:27 | 28.92100 | -78.73426 | 34992 ft | 428 kts | 5° |
| 2026-04-26 00:27 | 28.97969 | -78.72580 | 34990 ft | 428 kts | 5° |
| 2026-04-26 00:28 | 29.03874 | -78.71733 | 34987 ft | 428 kts | 5° |
| 2026-04-26 00:28 | 29.09780 | -78.70881 | 34992 ft | 428 kts | 5° |
| 2026-04-26 00:29 | 29.15684 | -78.70028 | 34978 ft | 428 kts | 5° |
| 2026-04-26 00:29 | 29.21588 | -78.69182 | 34979 ft | 428 kts | 5° |
| 2026-04-26 00:30 | 29.27497 | -78.68327 | 34988 ft | 428 kts | 5° |
| 2026-04-26 00:30 | 29.33403 | -78.67475 | 34981 ft | 428 kts | 5° |
| 2026-04-26 00:31 | 29.39312 | -78.66618 | 34987 ft | 427 kts | 5° |
| 2026-04-26 00:31 | 29.45215 | -78.65788 | 34987 ft | 427 kts | 5° |
| 2026-04-26 00:32 | 29.51129 | -78.64965 | 34982 ft | 427 kts | 5° |
| 2026-04-26 00:32 | 29.59980 | -78.63722 | 34984 ft | 427 kts | 5° |
| 2026-04-26 00:33 | 29.65879 | -78.62888 | 34984 ft | 427 kts | 5° |
| 2026-04-26 00:33 | 29.71785 | -78.62047 | 34978 ft | 428 kts | 5° |
| 2026-04-26 00:34 | 29.77659 | -78.61207 | 34978 ft | 428 kts | 5° |
| 2026-04-26 00:34 | 29.83577 | -78.60371 | 34974 ft | 428 kts | 5° |
| 2026-04-26 00:35 | 29.89486 | -78.59544 | 34971 ft | 428 kts | 5° |
| 2026-04-26 00:35 | 29.95403 | -78.58703 | 34973 ft | 429 kts | 5° |
| 2026-04-26 00:36 | 30.00364 | -78.57995 | 34969 ft | 429 kts | 5° |
| 2026-04-26 00:36 | 30.06250 | -78.57151 | 34968 ft | 429 kts | 5° |
| 2026-04-26 00:37 | 30.12182 | -78.56301 | 34966 ft | 430 kts | 5° |
| 2026-04-26 00:37 | 30.18117 | -78.55462 | 34967 ft | 430 kts | 5° |
| 2026-04-26 00:38 | 30.24057 | -78.54620 | 34968 ft | 430 kts | 5° |
| 2026-04-26 00:38 | 30.29993 | -78.53767 | 34969 ft | 430 kts | 5° |
| 2026-04-26 00:39 | 30.35928 | -78.52916 | 34969 ft | 430 kts | 5° |
| 2026-04-26 00:39 | 30.41872 | -78.52066 | 34969 ft | 430 kts | 5° |
| 2026-04-26 00:40 | 30.47805 | -78.51157 | 34971 ft | 430 kts | 6° |
| 2026-04-26 00:40 | 30.53735 | -78.50172 | 34968 ft | 431 kts | 6° |
| 2026-04-26 00:41 | 30.59668 | -78.49188 | 34967 ft | 431 kts | 6° |
| 2026-04-26 00:41 | 30.65607 | -78.48225 | 34966 ft | 431 kts | 6° |
| 2026-04-26 00:42 | 30.71552 | -78.47268 | 34968 ft | 431 kts | 6° |
| 2026-04-26 00:42 | 30.77489 | -78.46296 | 34966 ft | 431 kts | 5° |
| 2026-04-26 00:43 | 30.83447 | -78.45324 | 34955 ft | 432 kts | 5° |
| 2026-04-26 00:43 | 30.89412 | -78.44346 | 34954 ft | 433 kts | 5° |
| 2026-04-26 00:44 | 30.95348 | -78.43373 | 34952 ft | 433 kts | 5° |
| 2026-04-26 00:44 | 31.01334 | -78.42404 | 34960 ft | 433 kts | 5° |
| 2026-04-26 00:45 | 31.07311 | -78.41427 | 34950 ft | 434 kts | 5° |
| 2026-04-26 00:45 | 31.13301 | -78.40441 | 34949 ft | 435 kts | 5° |
| 2026-04-26 00:46 | 31.19294 | -78.39459 | 34955 ft | 435 kts | 5° |
| 2026-04-26 00:46 | 31.25291 | -78.38477 | 34953 ft | 435 kts | 5° |
| 2026-04-26 00:47 | 31.31297 | -78.37491 | 34951 ft | 436 kts | 5° |
| 2026-04-26 00:47 | 31.37314 | -78.36495 | 34946 ft | 437 kts | 5° |
| 2026-04-26 00:48 | 31.43344 | -78.35494 | 34945 ft | 438 kts | 5° |
| 2026-04-26 00:48 | 31.49377 | -78.34500 | 34945 ft | 438 kts | 5° |
| 2026-04-26 00:49 | 31.55427 | -78.33497 | 34955 ft | 438 kts | 5° |
| 2026-04-26 00:49 | 31.61439 | -78.32493 | 34943 ft | 440 kts | 5° |
| 2026-04-26 00:50 | 31.67504 | -78.31484 | 34943 ft | 440 kts | 4° |
| 2026-04-26 00:50 | 31.73622 | -78.30478 | 34943 ft | 441 kts | 4° |
| 2026-04-26 00:51 | 31.79663 | -78.29479 | 34939 ft | 441 kts | 4° |
| 2026-04-26 00:51 | 31.85748 | -78.28475 | 34944 ft | 442 kts | 4° |
| 2026-04-26 00:52 | 31.91839 | -78.27454 | 34940 ft | 442 kts | 4° |
| 2026-04-26 00:52 | 31.97940 | -78.26434 | 34937 ft | 442 kts | 4° |
| 2026-04-26 00:53 | 32.04041 | -78.25427 | 34940 ft | 443 kts | 4° |
| 2026-04-26 00:53 | 32.10150 | -78.24513 | 34950 ft | 443 kts | 3° |
| 2026-04-26 00:54 | 32.16273 | -78.23651 | 34939 ft | 443 kts | 3° |
| 2026-04-26 00:54 | 32.22403 | -78.22778 | 34934 ft | 444 kts | 3° |
| 2026-04-26 00:55 | 32.28546 | -78.21873 | 34936 ft | 444 kts | 3° |
| 2026-04-26 00:55 | 32.34684 | -78.20969 | 34949 ft | 445 kts | 3° |
| 2026-04-26 00:56 | 32.40827 | -78.20067 | 34935 ft | 445 kts | 3° |
| 2026-04-26 00:56 | 32.46983 | -78.19166 | 34934 ft | 446 kts | 3° |
| 2026-04-26 00:57 | 32.53110 | -78.18267 | 34932 ft | 446 kts | 3° |
| 2026-04-26 00:57 | 32.59279 | -78.17369 | 34933 ft | 447 kts | 3° |
| 2026-04-26 00:58 | 32.65454 | -78.16460 | 34933 ft | 448 kts | 3° |
| 2026-04-26 00:58 | 32.71642 | -78.15547 | 34923 ft | 449 kts | 3° |
| 2026-04-26 00:59 | 32.77843 | -78.14631 | 34929 ft | 449 kts | 3° |
| 2026-04-26 00:59 | 32.84048 | -78.13708 | 34921 ft | 450 kts | 3° |
| 2026-04-26 01:00 | 32.90259 | -78.12781 | 34924 ft | 450 kts | 3° |
| 2026-04-26 01:00 | 32.96478 | -78.11854 | 34928 ft | 450 kts | 3° |
| 2026-04-26 01:01 | 33.02693 | -78.10932 | 34926 ft | 450 kts | 3° |
| 2026-04-26 01:01 | 33.08915 | -78.10007 | 34932 ft | 450 kts | 3° |
| 2026-04-26 01:02 | 33.15144 | -78.09081 | 34931 ft | 451 kts | 3° |
| 2026-04-26 01:02 | 33.21374 | -78.08159 | 34922 ft | 452 kts | 3° |
| 2026-04-26 01:03 | 33.27632 | -78.07217 | 34915 ft | 453 kts | 3° |
| 2026-04-26 01:03 | 33.33884 | -78.06274 | 34911 ft | 453 kts | 3° |
| 2026-04-26 01:04 | 33.40147 | -78.05336 | 34926 ft | 454 kts | 3° |
| 2026-04-26 01:04 | 33.46420 | -78.04392 | 34916 ft | 454 kts | 3° |
| 2026-04-26 01:05 | 33.52700 | -78.03441 | 34916 ft | 455 kts | 3° |
| 2026-04-26 01:05 | 33.58981 | -78.02490 | 34909 ft | 455 kts | 3° |
| 2026-04-26 01:06 | 33.65228 | -78.01550 | 34924 ft | 456 kts | 2° |
| 2026-04-26 01:06 | 33.71525 | -78.00597 | 34909 ft | 456 kts | 3° |
| 2026-04-26 01:07 | 33.77835 | -77.99641 | 34907 ft | 457 kts | 2° |
| 2026-04-26 01:07 | 33.84143 | -77.98685 | 34907 ft | 457 kts | 3° |
| 2026-04-26 01:08 | 33.90464 | -77.97721 | 34919 ft | 458 kts | 2° |
| 2026-04-26 01:08 | 33.96795 | -77.96731 | 34911 ft | 458 kts | 3° |
| 2026-04-26 01:09 | 34.03127 | -77.95738 | 34906 ft | 459 kts | 3° |
| 2026-04-26 01:09 | 34.09455 | -77.94745 | 34897 ft | 459 kts | 3° |
| 2026-04-26 01:10 | 34.15795 | -77.93750 | 34911 ft | 459 kts | 3° |
| 2026-04-26 01:10 | 34.22133 | -77.92751 | 34906 ft | 460 kts | 2° |
| 2026-04-26 01:11 | 34.28478 | -77.91755 | 34904 ft | 460 kts | 2° |
| 2026-04-26 01:11 | 34.34824 | -77.90753 | 34903 ft | 460 kts | 3° |
| 2026-04-26 01:12 | 34.41178 | -77.89743 | 34917 ft | 460 kts | 2° |
| 2026-04-26 01:12 | 34.46456 | -77.88911 | 34905 ft | 461 kts | 2° |
| 2026-04-26 01:13 | 34.53892 | -77.87739 | 34910 ft | 461 kts | 2° |
| 2026-04-26 01:13 | 34.60257 | -77.86733 | 34904 ft | 461 kts | 2° |
| 2026-04-26 01:14 | 34.66621 | -77.85718 | 34923 ft | 462 kts | 2° |
| 2026-04-26 01:14 | 34.72965 | -77.84701 | 34898 ft | 463 kts | 2° |
| 2026-04-26 01:15 | 34.79358 | -77.83683 | 34892 ft | 464 kts | 2° |
| 2026-04-26 01:15 | 34.85758 | -77.82661 | 34896 ft | 465 kts | 4° |
| 2026-04-26 01:16 | 34.92082 | -77.80725 | 34905 ft | 470 kts | 11° |
| 2026-04-26 01:16 | 34.98400 | -77.78577 | 34894 ft | 471 kts | 11° |
| 2026-04-26 01:17 | 35.04723 | -77.76432 | 34891 ft | 472 kts | 11° |
| 2026-04-26 01:17 | 35.09991 | -77.74648 | 34891 ft | 472 kts | 11° |
| 2026-04-26 01:18 | 35.16331 | -77.72500 | 34921 ft | 473 kts | 11° |
| 2026-04-26 01:18 | 35.22689 | -77.70341 | 34920 ft | 474 kts | 11° |
| 2026-04-26 01:19 | 35.29049 | -77.68182 | 34926 ft | 475 kts | 11° |
| 2026-04-26 01:19 | 35.35416 | -77.66003 | 34927 ft | 475 kts | 11° |
| 2026-04-26 01:20 | 35.41786 | -77.63823 | 34929 ft | 475 kts | 11° |
| 2026-04-26 01:20 | 35.48158 | -77.61643 | 34921 ft | 476 kts | 11° |
| 2026-04-26 01:21 | 35.54533 | -77.59457 | 34921 ft | 476 kts | 11° |
| 2026-04-26 01:21 | 35.60908 | -77.57261 | 34951 ft | 475 kts | 11° |
| 2026-04-26 01:22 | 35.67274 | -77.55074 | 34949 ft | 475 kts | 11° |
| 2026-04-26 01:22 | 35.73645 | -77.52884 | 34940 ft | 475 kts | 11° |
| 2026-04-26 01:23 | 35.80016 | -77.50760 | 34929 ft | 474 kts | 9° |
| 2026-04-26 01:23 | 35.86405 | -77.48711 | 34968 ft | 474 kts | 9° |
| 2026-04-26 01:24 | 35.92793 | -77.46653 | 34961 ft | 475 kts | 9° |
| 2026-04-26 01:24 | 35.99151 | -77.44582 | 34955 ft | 475 kts | 9° |
| 2026-04-26 01:25 | 36.05537 | -77.42474 | 34940 ft | 476 kts | 10° |
| 2026-04-26 01:25 | 36.11939 | -77.40361 | 34940 ft | 476 kts | 9° |
| 2026-04-26 01:26 | 36.18344 | -77.38256 | 34932 ft | 476 kts | 9° |
| 2026-04-26 01:26 | 36.24750 | -77.36151 | 34936 ft | 476 kts | 9° |
| 2026-04-26 01:27 | 36.31175 | -77.34035 | 34939 ft | 477 kts | 9° |
| 2026-04-26 01:27 | 36.37586 | -77.31920 | 34943 ft | 477 kts | 10° |
| 2026-04-26 01:28 | 36.44012 | -77.29791 | 34927 ft | 478 kts | 10° |
| 2026-04-26 01:28 | 36.50447 | -77.27655 | 34914 ft | 479 kts | 10° |
| 2026-04-26 01:29 | 36.56840 | -77.25529 | 34934 ft | 479 kts | 9° |
| 2026-04-26 01:29 | 36.63290 | -77.23401 | 34925 ft | 480 kts | 9° |
| 2026-04-26 01:30 | 36.69752 | -77.21244 | 34909 ft | 480 kts | 10° |
| 2026-04-26 01:30 | 36.76208 | -77.19085 | 34919 ft | 480 kts | 10° |
| 2026-04-26 01:31 | 36.82666 | -77.16922 | 34935 ft | 480 kts | 9° |
| 2026-04-26 01:31 | 36.89116 | -77.14763 | 34933 ft | 480 kts | 9° |
| 2026-04-26 01:32 | 36.95571 | -77.12596 | 34936 ft | 480 kts | 9° |
| 2026-04-26 01:32 | 37.02033 | -77.10433 | 34956 ft | 480 kts | 9° |
| 2026-04-26 01:33 | 37.08480 | -77.08252 | 34948 ft | 480 kts | 9° |
| 2026-04-26 01:33 | 37.14940 | -77.06060 | 34938 ft | 480 kts | 9° |
| 2026-04-26 01:34 | 37.21398 | -77.03890 | 34930 ft | 480 kts | 9° |
| 2026-04-26 01:34 | 37.27855 | -77.01728 | 34939 ft | 480 kts | 9° |
| 2026-04-26 01:35 | 37.34315 | -76.99534 | 34932 ft | 481 kts | 9° |
| 2026-04-26 01:35 | 37.40766 | -76.97322 | 34930 ft | 481 kts | 9° |
| 2026-04-26 01:36 | 37.47165 | -76.94787 | 34956 ft | 487 kts | 20° |
| 2026-04-26 01:37 | 37.56213 | -76.88862 | 34933 ft | 491 kts | 24° |
| 2026-04-26 01:37 | 37.62245 | -76.84812 | 34958 ft | 491 kts | 23° |
| 2026-04-26 01:38 | 37.68293 | -76.80784 | 34954 ft | 492 kts | 23° |
| 2026-04-26 01:38 | 37.74346 | -76.76749 | 34945 ft | 492 kts | 23° |
| 2026-04-26 01:39 | 37.80391 | -76.72700 | 34935 ft | 492 kts | 23° |
| 2026-04-26 01:39 | 37.86447 | -76.68643 | 34923 ft | 492 kts | 23° |
| 2026-04-26 01:40 | 37.92522 | -76.64654 | 34952 ft | 491 kts | 22° |
| 2026-04-26 01:40 | 37.98649 | -76.60812 | 34966 ft | 491 kts | 21° |
| 2026-04-26 01:41 | 38.04780 | -76.56993 | 34972 ft | 491 kts | 21° |
| 2026-04-26 01:41 | 38.10889 | -76.53110 | 34976 ft | 491 kts | 22° |
| 2026-04-26 01:42 | 38.16953 | -76.49230 | 34985 ft | 491 kts | 21° |
| 2026-04-26 01:42 | 38.23056 | -76.45331 | 34990 ft | 490 kts | 21° |
| 2026-04-26 01:43 | 38.29113 | -76.41325 | 34988 ft | 493 kts | 27° |
| 2026-04-26 01:43 | 38.34655 | -76.36102 | 35002 ft | 497 kts | 34° |
| 2026-04-26 01:44 | 38.40130 | -76.30718 | 34993 ft | 496 kts | 33° |
| 2026-04-26 01:44 | 38.45616 | -76.25365 | 34985 ft | 496 kts | 33° |
| 2026-04-26 01:45 | 38.51103 | -76.20011 | 34985 ft | 496 kts | 33° |
| 2026-04-26 01:45 | 38.56582 | -76.14625 | 34989 ft | 497 kts | 34° |
| 2026-04-26 01:46 | 38.62058 | -76.09221 | 34981 ft | 497 kts | 33° |
| 2026-04-26 01:46 | 38.67569 | -76.03911 | 34982 ft | 496 kts | 32° |
| 2026-04-26 01:47 | 38.73155 | -75.98755 | 34996 ft | 494 kts | 31° |
| 2026-04-26 01:47 | 38.78733 | -75.93622 | 34987 ft | 493 kts | 32° |
| 2026-04-26 01:48 | 38.84286 | -75.88425 | 34990 ft | 493 kts | 32° |
| 2026-04-26 01:48 | 38.89814 | -75.83214 | 34993 ft | 493 kts | 32° |
| 2026-04-26 01:49 | 38.95313 | -75.78028 | 35007 ft | 493 kts | 32° |
| 2026-04-26 01:49 | 39.00877 | -75.72777 | 34955 ft | 493 kts | 32° |
| 2026-04-26 01:49 | 39.03641 | -75.70158 | 33846 ft | 494 kts | 32° |
| 2026-04-26 01:50 | 39.06446 | -75.67509 | 31992 ft | 505 kts | 32° |
| 2026-04-26 01:50 | 39.09269 | -75.64841 | 30318 ft | 510 kts | 33° |
| 2026-04-26 01:50 | 39.12130 | -75.62127 | 28569 ft | 511 kts | 33° |
| 2026-04-26 01:50 | 39.14965 | -75.59424 | 27183 ft | 502 kts | 33° |
| 2026-04-26 01:51 | 39.17727 | -75.56780 | 26462 ft | 483 kts | 33° |
| 2026-04-26 01:51 | 39.20379 | -75.54245 | 26150 ft | 471 kts | 33° |
| 2026-04-26 01:51 | 39.23010 | -75.51742 | 25906 ft | 469 kts | 33° |
| 2026-04-26 01:51 | 39.25649 | -75.49288 | 25666 ft | 467 kts | 32° |
| 2026-04-26 01:52 | 39.28312 | -75.46900 | 25428 ft | 465 kts | 31° |
| 2026-04-26 01:52 | 39.30977 | -75.44561 | 25193 ft | 463 kts | 31° |
| 2026-04-26 01:52 | 39.33636 | -75.42245 | 24975 ft | 461 kts | 31° |
| 2026-04-26 01:52 | 39.36290 | -75.39930 | 24745 ft | 459 kts | 31° |
| 2026-04-26 01:53 | 39.38933 | -75.37606 | 24533 ft | 458 kts | 31° |
| 2026-04-26 01:53 | 39.41558 | -75.35285 | 24272 ft | 454 kts | 31° |
| 2026-04-26 01:53 | 39.44123 | -75.32998 | 23655 ft | 441 kts | 32° |
| 2026-04-26 01:53 | 39.46587 | -75.30790 | 22982 ft | 428 kts | 32° |
| 2026-04-26 01:54 | 39.49017 | -75.28607 | 22403 ft | 414 kts | 31° |
| 2026-04-26 01:54 | 39.51369 | -75.26496 | 21850 ft | 414 kts | 32° |
| 2026-04-26 01:54 | 39.53778 | -75.24301 | 21429 ft | 427 kts | 32° |
| 2026-04-26 01:54 | 39.56170 | -75.22078 | 20970 ft | 427 kts | 32° |
| 2026-04-26 01:55 | 39.58568 | -75.19821 | 20506 ft | 424 kts | 32° |
| 2026-04-26 01:55 | 39.60971 | -75.17546 | 20045 ft | 421 kts | 33° |
| 2026-04-26 01:55 | 39.63296 | -75.15342 | 19605 ft | 417 kts | 32° |
| 2026-04-26 01:55 | 39.65626 | -75.13130 | 19143 ft | 414 kts | 32° |
| 2026-04-26 01:56 | 39.67941 | -75.10945 | 18706 ft | 410 kts | 32° |
| 2026-04-26 01:56 | 39.70268 | -75.08838 | 18251 ft | 405 kts | 30° |
| 2026-04-26 01:56 | 39.72599 | -75.06824 | 17776 ft | 399 kts | 30° |
| 2026-04-26 01:56 | 39.74918 | -75.04869 | 17241 ft | 398 kts | 29° |
| 2026-04-26 01:57 | 39.77237 | -75.02929 | 16781 ft | 393 kts | 29° |
| 2026-04-26 01:57 | 39.79530 | -75.01002 | 16356 ft | 391 kts | 30° |
| 2026-04-26 01:57 | 39.81802 | -74.99072 | 15947 ft | 388 kts | 30° |
| 2026-04-26 01:57 | 39.84049 | -74.97141 | 15533 ft | 386 kts | 31° |
| 2026-04-26 01:58 | 39.86274 | -74.95202 | 15119 ft | 384 kts | 31° |
| 2026-04-26 01:58 | 39.88458 | -74.93239 | 14789 ft | 377 kts | 32° |
| 2026-04-26 01:58 | 39.90563 | -74.91310 | 14667 ft | 362 kts | 32° |
| 2026-04-26 01:58 | 39.92509 | -74.89305 | 14554 ft | 351 kts | 41° |
| 2026-04-26 01:59 | 39.94141 | -74.87009 | 14436 ft | 340 kts | 46° |
| 2026-04-26 01:59 | 39.95694 | -74.84755 | 14191 ft | 328 kts | 46° |
| 2026-04-26 01:59 | 39.97221 | -74.82565 | 13571 ft | 324 kts | 45° |
| 2026-04-26 01:59 | 39.98225 | -74.81133 | 13119 ft | 322 kts | 45° |
| 2026-04-26 02:00 | 39.99731 | -74.78983 | 12444 ft | 319 kts | 45° |
| 2026-04-26 02:00 | 40.01225 | -74.76855 | 11868 ft | 315 kts | 45° |
| 2026-04-26 02:00 | 40.02697 | -74.74758 | 11519 ft | 313 kts | 45° |
| 2026-04-26 02:00 | 40.04164 | -74.72662 | 11158 ft | 313 kts | 45° |
| 2026-04-26 02:01 | 40.05632 | -74.70559 | 10812 ft | 312 kts | 45° |
| 2026-04-26 02:01 | 40.07091 | -74.68465 | 10483 ft | 312 kts | 45° |
| 2026-04-26 02:01 | 40.08555 | -74.66359 | 10140 ft | 313 kts | 45° |
| 2026-04-26 02:01 | 40.10008 | -74.64265 | 9817 ft | 310 kts | 45° |
| 2026-04-26 02:02 | 40.11457 | -74.62180 | 9606 ft | 310 kts | 45° |
| 2026-04-26 02:02 | 40.12914 | -74.60085 | 9359 ft | 311 kts | 45° |
| 2026-04-26 02:02 | 40.14365 | -74.58000 | 9132 ft | 310 kts | 45° |
| 2026-04-26 02:02 | 40.15811 | -74.55914 | 8900 ft | 310 kts | 45° |
| 2026-04-26 02:03 | 40.17257 | -74.53830 | 8669 ft | 309 kts | 45° |
| 2026-04-26 02:03 | 40.18701 | -74.51743 | 8437 ft | 309 kts | 46° |
| 2026-04-26 02:03 | 40.20139 | -74.49662 | 8203 ft | 308 kts | 45° |
| 2026-04-26 02:03 | 40.21600 | -74.47673 | 7981 ft | 307 kts | 43° |
| 2026-04-26 02:04 | 40.23131 | -74.45726 | 7756 ft | 306 kts | 41° |
| 2026-04-26 02:04 | 40.24680 | -74.43807 | 7528 ft | 306 kts | 41° |
| 2026-04-26 02:04 | 40.26202 | -74.41934 | 7305 ft | 306 kts | 42° |
| 2026-04-26 02:04 | 40.27681 | -74.40119 | 7092 ft | 305 kts | 41° |
| 2026-04-26 02:05 | 40.29244 | -74.38178 | 6870 ft | 306 kts | 43° |
| 2026-04-26 02:05 | 40.30779 | -74.36244 | 6630 ft | 306 kts | 43° |
| 2026-04-26 02:05 | 40.32305 | -74.34305 | 6399 ft | 305 kts | 44° |
| 2026-04-26 02:05 | 40.33803 | -74.32396 | 6163 ft | 303 kts | 45° |
| 2026-04-26 02:06 | 40.35312 | -74.30473 | 5933 ft | 301 kts | 45° |
| 2026-04-26 02:06 | 40.36808 | -74.28567 | 5712 ft | 299 kts | 46° |
| 2026-04-26 02:06 | 40.38297 | -74.26679 | 5494 ft | 297 kts | 46° |
| 2026-04-26 02:06 | 40.39776 | -74.24804 | 5271 ft | 294 kts | 47° |
| 2026-04-26 02:07 | 40.41243 | -74.22939 | 5069 ft | 292 kts | 47° |
| 2026-04-26 02:07 | 40.42696 | -74.21087 | 4844 ft | 290 kts | 48° |
| 2026-04-26 02:07 | 40.44132 | -74.19255 | 4627 ft | 286 kts | 48° |
| 2026-04-26 02:07 | 40.45549 | -74.17456 | 4415 ft | 281 kts | 49° |
| 2026-04-26 02:08 | 40.46937 | -74.15692 | 4203 ft | 275 kts | 48° |
| 2026-04-26 02:08 | 40.48293 | -74.13965 | 3981 ft | 268 kts | 48° |
| 2026-04-26 02:08 | 40.49622 | -74.12268 | 3703 ft | 264 kts | 48° |
| 2026-04-26 02:08 | 40.50923 | -74.10611 | 3487 ft | 258 kts | 48° |
| 2026-04-26 02:09 | 40.52271 | -74.09071 | 3240 ft | 256 kts | 39° |
| 2026-04-26 02:09 | 40.53718 | -74.07764 | 3105 ft | 249 kts | 42° |
| 2026-04-26 02:09 | 40.55106 | -74.06396 | 3010 ft | 250 kts | 39° |
| 2026-04-26 02:09 | 40.56563 | -74.05149 | 2855 ft | 249 kts | 36° |
| 2026-04-26 02:10 | 40.58028 | -74.03956 | 2671 ft | 247 kts | 36° |
| 2026-04-26 02:10 | 40.59469 | -74.02780 | 2560 ft | 239 kts | 36° |
| 2026-04-26 02:10 | 40.60848 | -74.01649 | 2466 ft | 228 kts | 36° |
| 2026-04-26 02:10 | 40.62164 | -74.00568 | 2368 ft | 218 kts | 37° |
| 2026-04-26 02:11 | 40.63420 | -73.99537 | 2279 ft | 206 kts | 37° |
| 2026-04-26 02:11 | 40.64578 | -73.98587 | 2200 ft | 184 kts | 37° |
| 2026-04-26 02:11 | 40.65581 | -73.97765 | 2116 ft | 158 kts | 38° |
| 2026-04-26 02:11 | 40.66459 | -73.97042 | 2039 ft | 142 kts | 39° |
| 2026-04-26 02:12 | 40.67279 | -73.96365 | 1983 ft | 137 kts | 38° |
| 2026-04-26 02:12 | 40.68083 | -73.95700 | 1924 ft | 136 kts | 38° |
| 2026-04-26 02:12 | 40.68886 | -73.95037 | 1866 ft | 137 kts | 38° |
| 2026-04-26 02:12 | 40.69689 | -73.94375 | 1827 ft | 135 kts | 38° |
| 2026-04-26 02:13 | 40.70482 | -73.93723 | 1672 ft | 133 kts | 38° |
| 2026-04-26 02:13 | 40.71265 | -73.93076 | 1498 ft | 133 kts | 38° |
| 2026-04-26 02:13 | 40.72048 | -73.92431 | 1311 ft | 132 kts | 37° |
| 2026-04-26 02:13 | 40.72823 | -73.91792 | 1109 ft | 131 kts | 37° |
| 2026-04-26 02:14 | 40.73597 | -73.91154 | 911 ft | 131 kts | 36° |
| 2026-04-26 02:14 | 40.74361 | -73.90523 | 710 ft | 132 kts | 35° |
| 2026-04-26 02:14 | 40.75133 | -73.89887 | 534 ft | 130 kts | 34° |
| 2026-04-26 02:14 | 40.75895 | -73.89261 | 349 ft | 128 kts | 34° |
| 2026-04-26 02:15 | 40.76652 | -73.88638 | 135 ft | 129 kts | 33° |
| 2026-04-26 02:15 | 40.77390 | -73.88022 | 23 ft | 112 kts | 32° |
| 2026-04-26 02:15 | 40.77798 | -73.87688 | 22 ft | 33 kts | 31° |
| 2026-04-26 02:15 | 40.77957 | -73.87548 | 16 ft | 10 kts | 59° |
| 2026-04-26 02:16 | 40.77926 | -73.87455 | 15 ft | 9 kts | 122° |
| 2026-04-26 02:16 | 40.77917 | -73.87434 | 15 ft | 1 kts | 121° |
| 2026-04-26 02:16 | 40.77909 | -73.87417 | 15 ft | 4 kts | 121° |
| 2026-04-26 02:16 | 40.77887 | -73.87370 | 14 ft | 9 kts | 122° |
| 2026-04-26 02:17 | 40.77846 | -73.87282 | 13 ft | 13 kts | 122° |
| 2026-04-26 02:17 | 40.77824 | -73.87257 | 13 ft | 2 kts | 187° |
| 2026-04-26 02:17 | 40.77781 | -73.87275 | 14 ft | 3 kts | 199° |
| 2026-04-26 02:17 | 40.77780 | -73.87278 | 14 ft | 0 kts | 222° |
| 2026-04-26 02:18 | 40.77775 | -73.87311 | 15 ft | 9 kts | 269° |
| 2026-04-26 02:18 | 40.77758 | -73.87420 | 19 ft | 15 kts | 247° |
| 2026-04-26 02:18 | 40.77694 | -73.87537 | 20 ft | 15 kts | 213° |
| 2026-04-26 02:18 | 40.77600 | -73.87606 | 20 ft | 13 kts | 182° |
| 2026-04-26 02:19 | 40.77512 | -73.87541 | 20 ft | 15 kts | 139° |
| 2026-04-26 02:19 | 40.77473 | -73.87426 | 20 ft | 13 kts | 96° |
| 2026-04-26 02:19 | 40.77452 | -73.87352 | 21 ft | 9 kts | 133° |
| 2026-04-26 02:19 | 40.77427 | -73.87258 | 20 ft | 13 kts | 95° |
| 2026-04-26 02:20 | 40.77398 | -73.87148 | 20 ft | 11 kts | 123° |
| 2026-04-26 02:20 | 40.77343 | -73.87070 | 22 ft | 12 kts | 138° |
| 2026-04-26 02:20 | 40.77307 | -73.87024 | 20 ft | 0 kts | 134° |
| 2026-04-26 02:20 | 40.77307 | -73.87021 | 20 ft | 0 kts | 114° |
| 2026-04-26 02:21 | 40.77309 | -73.87018 | 20 ft | 1 kts | 81° |
| 2026-04-26 02:21 | 40.77320 | -73.87006 | 20 ft | 4 kts | 47° |
| 2026-04-26 02:21 | 40.77333 | -73.86974 | 21 ft | 2 kts | 72° |
| 2026-04-26 02:21 | 40.77335 | -73.86964 | 20 ft | 0 kts | 73° |
| 2026-04-26 02:22 | 40.77336 | -73.86959 | 20 ft | 1 kts | 73° |
| 2026-04-26 02:22 | 40.77336 | -73.86957 | 20 ft | 0 kts | 73° |